createdAt,value
2018-09-09T00:00:48.398Z,100712.95
2018-09-09T00:03:17.067Z,100711.67
2018-09-09T00:05:45.478Z,100709.77
2018-09-09T00:08:13.987Z,100708.22
2018-09-09T00:10:42.435Z,100710.07
2018-09-09T00:13:10.910Z,100709.61
2018-09-09T00:15:39.331Z,100704.83
2018-09-09T00:18:07.731Z,100703.97
2018-09-09T00:20:36.142Z,100703.55
2018-09-09T00:23:04.769Z,100701.30
2018-09-09T00:25:33.306Z,100705.14
2018-09-09T00:28:01.762Z,100706.81
2018-09-09T00:30:30.446Z,100713.08
2018-09-09T00:32:58.862Z,100712.14
2018-09-09T00:35:27.388Z,100707.81
2018-09-09T00:37:55.792Z,100721.02
2018-09-09T00:40:24.227Z,100721.31
2018-09-09T00:42:52.854Z,100722.65
2018-09-09T00:45:21.637Z,100723.93
2018-09-09T00:47:50.121Z,100720.75
2018-09-09T00:50:23.771Z,100717.26
2018-09-09T00:52:57.596Z,100717.06
2018-09-09T00:55:26.247Z,100714.23
2018-09-09T00:57:54.785Z,100713.93
2018-09-09T01:00:28.759Z,100712.92
2018-09-09T01:02:57.164Z,100706.58
2018-09-09T01:05:25.658Z,100717.00
2018-09-09T01:07:54.189Z,100714.44
2018-09-09T01:10:22.659Z,100713.91
2018-09-09T01:12:51.151Z,100714.72
2018-09-09T01:15:19.671Z,100710.61
2018-09-09T01:17:48.193Z,100712.88
2018-09-09T01:20:16.879Z,100707.93
2018-09-09T01:22:45.563Z,100709.51
2018-09-09T01:25:14.059Z,100719.38
2018-09-09T01:27:42.458Z,100714.75
2018-09-09T01:30:10.939Z,100713.17
2018-09-09T01:32:39.439Z,100711.73
2018-09-09T01:35:07.914Z,100712.96
2018-09-09T01:37:36.430Z,100717.47
2018-09-09T01:40:04.915Z,100723.66
2018-09-09T01:42:33.322Z,100712.59
2018-09-09T01:45:01.859Z,100719.38
2018-09-09T01:47:30.400Z,100711.56
2018-09-09T01:49:58.870Z,100714.87
2018-09-09T01:52:27.635Z,100719.53
2018-09-09T01:54:56.070Z,100721.73
2018-09-09T01:57:24.820Z,100724.52
2018-09-09T01:59:53.290Z,100723.13
2018-09-09T02:02:21.799Z,100717.52
2018-09-09T02:04:50.291Z,100719.72
2018-09-09T02:07:18.781Z,100721.13
2018-09-09T02:09:47.194Z,100720.27
2018-09-09T02:12:15.639Z,100722.76
2018-09-09T02:14:44.315Z,100731.16
2018-09-09T02:17:12.858Z,100737.98
2018-09-09T02:19:41.236Z,100731.88
2018-09-09T02:22:09.933Z,100736.39
2018-09-09T02:24:38.382Z,100731.98
2018-09-09T02:27:06.803Z,100720.52
2018-09-09T02:29:35.574Z,100728.86
2018-09-09T02:32:04.007Z,100723.22
2018-09-09T02:34:32.463Z,100730.44
2018-09-09T02:37:01.148Z,100729.41
2018-09-09T02:39:29.583Z,100730.69
2018-09-09T02:41:58.056Z,100725.28
2018-09-09T02:44:26.635Z,100724.47
2018-09-09T02:46:55.039Z,100724.47
2018-09-09T02:49:23.443Z,100729.09
2018-09-09T02:51:52.227Z,100732.54
2018-09-09T02:54:20.679Z,100725.92
2018-09-09T02:56:49.106Z,100730.29
2018-09-09T02:59:17.540Z,100728.74
2018-09-09T03:01:45.942Z,100729.59
2018-09-09T03:04:14.414Z,100730.53
2018-09-09T03:06:43.007Z,100732.58
2018-09-09T03:09:11.495Z,100742.55
2018-09-09T03:11:39.983Z,100738.06
2018-09-09T03:14:08.667Z,100733.33
2018-09-09T03:16:37.159Z,100741.02
2018-09-09T03:19:05.712Z,100737.70
2018-09-09T03:21:34.338Z,100740.97
2018-09-09T03:24:02.782Z,100731.38
2018-09-09T03:26:31.286Z,100732.37
2018-09-09T03:28:59.915Z,100729.17
2018-09-09T03:31:28.379Z,100723.59
2018-09-09T03:33:56.839Z,100723.62
2018-09-09T03:36:25.822Z,100719.78
2018-09-09T03:38:54.243Z,100712.00
2018-09-09T03:41:22.658Z,100721.80
2018-09-09T03:43:51.295Z,100710.41
2018-09-09T03:46:19.839Z,100717.45
2018-09-09T03:48:48.255Z,100712.17
2018-09-09T03:51:17.314Z,100717.91
2018-09-09T03:53:45.819Z,100723.80
2018-09-09T03:56:14.294Z,100724.63
2018-09-09T03:58:42.708Z,100729.20
2018-09-09T04:01:11.238Z,100724.64
2018-09-09T04:03:39.678Z,100731.98
2018-09-09T04:06:08.251Z,100736.02
2018-09-09T04:08:36.675Z,100746.55
2018-09-09T04:11:08.884Z,100746.05
2018-09-09T04:13:38.515Z,100749.59
2018-09-09T04:16:07.523Z,100756.92
2018-09-09T04:18:36.204Z,100762.04
2018-09-09T04:21:04.639Z,100761.17
2018-09-09T04:23:33.023Z,100765.13
2018-09-09T04:26:01.739Z,100755.86
2018-09-09T04:28:30.198Z,100762.28
2018-09-09T04:30:58.746Z,100767.02
2018-09-09T04:33:27.328Z,100762.39
2018-09-09T04:35:55.872Z,100766.16
2018-09-09T04:38:24.419Z,100760.91
2018-09-09T04:40:52.883Z,100766.87
2018-09-09T04:43:21.324Z,100764.33
2018-09-09T04:45:49.767Z,100762.47
2018-09-09T04:48:18.250Z,100754.72
2018-09-09T04:50:46.639Z,100754.45
2018-09-09T04:53:15.103Z,100760.38
2018-09-09T04:55:43.531Z,100762.34
2018-09-09T04:58:11.939Z,100762.77
2018-09-09T05:00:40.403Z,100759.40
2018-09-09T05:03:08.827Z,100766.34
2018-09-09T05:05:37.228Z,100770.76
2018-09-09T05:08:05.872Z,100766.19
2018-09-09T05:10:34.375Z,100777.23
2018-09-09T05:13:02.880Z,100772.87
2018-09-09T05:15:31.346Z,100766.77
2018-09-09T05:18:00.011Z,100764.68
2018-09-09T05:20:28.518Z,100777.79
2018-09-09T05:22:57.027Z,100780.41
2018-09-09T05:25:25.703Z,100781.86
2018-09-09T05:27:54.143Z,100786.80
2018-09-09T05:30:22.631Z,100787.00
2018-09-09T05:32:51.295Z,100785.52
2018-09-09T05:35:19.867Z,100792.62
2018-09-09T05:37:48.269Z,100798.86
2018-09-09T05:40:16.810Z,100800.59
2018-09-09T05:42:45.227Z,100795.01
2018-09-09T05:45:13.728Z,100793.67
2018-09-09T05:47:42.274Z,100790.91
2018-09-09T05:50:10.781Z,100790.91
2018-09-09T05:52:39.283Z,100790.45
2018-09-09T05:55:07.791Z,100791.02
2018-09-09T05:57:36.268Z,100799.87
2018-09-09T06:00:04.818Z,100804.52
2018-09-09T06:02:33.308Z,100804.88
2018-09-09T06:05:01.848Z,100807.64
2018-09-09T06:07:30.338Z,100805.65
2018-09-09T06:09:59.106Z,100817.14
2018-09-09T06:12:28.153Z,100821.19
2018-09-09T06:14:56.783Z,100819.14
2018-09-09T06:17:25.242Z,100813.77
2018-09-09T06:19:53.831Z,100797.55
2018-09-09T06:22:22.396Z,100782.41
2018-09-09T06:24:51.094Z,100782.67
2018-09-09T06:27:19.655Z,100792.66
2018-09-09T06:29:48.114Z,100801.54
2018-09-09T06:32:16.895Z,100801.70
2018-09-09T06:34:45.323Z,100805.92
2018-09-09T06:37:13.832Z,100808.21
2018-09-09T06:39:42.525Z,100807.28
2018-09-09T06:42:10.943Z,100805.83
2018-09-09T06:44:39.623Z,100807.22
2018-09-09T06:47:08.126Z,100797.70
2018-09-09T06:49:36.711Z,100796.00
2018-09-09T06:52:05.306Z,100800.24
2018-09-09T06:54:33.942Z,100795.44
2018-09-09T06:57:02.422Z,100792.17
2018-09-09T06:59:30.873Z,100780.20
2018-09-09T07:01:59.387Z,100777.05
2018-09-09T07:04:27.879Z,100785.60
2018-09-09T07:06:56.363Z,100784.35
2018-09-09T07:09:25.100Z,100798.53
2018-09-09T07:11:53.599Z,100797.36
2018-09-09T07:14:22.240Z,100796.84
2018-09-09T07:16:50.918Z,100802.84
2018-09-09T07:19:19.422Z,100793.68
2018-09-09T07:21:47.961Z,100795.83
2018-09-09T07:24:16.582Z,100784.84
2018-09-09T07:26:45.002Z,100788.33
2018-09-09T07:29:13.412Z,100786.69
2018-09-09T07:31:42.188Z,100797.02
2018-09-09T07:34:10.769Z,100797.48
2018-09-09T07:36:39.295Z,100801.89
2018-09-09T07:39:08.179Z,100804.24
2018-09-09T07:41:36.654Z,100804.80
2018-09-09T07:44:05.208Z,100811.66
2018-09-09T07:46:34.016Z,100810.17
2018-09-09T07:49:02.591Z,100818.44
2018-09-09T07:51:31.007Z,100818.60
2018-09-09T07:53:59.539Z,100810.91
2018-09-09T07:56:27.980Z,100812.79
2018-09-09T07:58:56.443Z,100808.81
2018-09-09T08:01:25.134Z,100812.62
2018-09-09T08:03:53.643Z,100818.78
2018-09-09T08:06:22.166Z,100827.02
2018-09-09T08:08:50.758Z,100827.42
2018-09-09T08:11:19.223Z,100831.38
2018-09-09T08:13:47.638Z,100829.68
2018-09-09T08:16:16.155Z,100831.73
2018-09-09T08:18:44.636Z,100827.84
2018-09-09T08:21:13.141Z,100822.20
2018-09-09T08:23:42.155Z,100827.41
2018-09-09T08:26:10.623Z,100830.92
2018-09-09T08:28:39.138Z,100828.75
2018-09-09T08:31:07.762Z,100831.03
2018-09-09T08:33:36.432Z,100834.28
2018-09-09T08:36:04.928Z,100834.57
2018-09-09T08:38:33.439Z,100836.80
2018-09-09T08:41:01.996Z,100833.39
2018-09-09T08:43:30.407Z,100826.89
2018-09-09T08:45:58.920Z,100829.91
2018-09-09T08:48:27.487Z,100827.45
2018-09-09T08:50:55.955Z,100833.53
2018-09-09T08:53:24.635Z,100829.69
2018-09-09T08:55:53.271Z,100826.19
2018-09-09T08:58:23.472Z,100820.73
2018-09-09T09:00:52.662Z,100817.14
2018-09-09T09:03:21.131Z,100827.72
2018-09-09T09:05:49.672Z,100824.34
2018-09-09T09:08:18.471Z,100832.02
2018-09-09T09:10:47.138Z,100830.72
2018-09-09T09:13:15.563Z,100829.02
2018-09-09T09:15:44.027Z,100833.41
2018-09-09T09:18:12.566Z,100826.22
2018-09-09T09:20:41.199Z,100821.47
2018-09-09T09:23:09.831Z,100823.19
2018-09-09T09:25:42.442Z,100815.95
2018-09-09T09:28:11.141Z,100821.58
2018-09-09T09:30:39.702Z,100813.17
2018-09-09T09:33:08.154Z,100812.27
2018-09-09T09:35:42.091Z,100815.96
2018-09-09T09:38:10.603Z,100819.06
2018-09-09T09:40:39.038Z,100825.92
2018-09-09T09:43:07.572Z,100825.54
2018-09-09T09:45:35.983Z,100829.11
2018-09-09T09:48:04.457Z,100812.06
2018-09-09T09:50:33.283Z,100819.43
2018-09-09T09:53:01.982Z,100813.85
2018-09-09T09:55:30.463Z,100813.17
2018-09-09T09:57:59.820Z,100810.59
2018-09-09T10:00:33.552Z,100806.27
2018-09-09T10:03:02.598Z,100805.83
2018-09-09T10:05:31.366Z,100803.41
2018-09-09T10:07:59.928Z,100802.17
2018-09-09T10:10:28.523Z,100796.88
2018-09-09T10:12:57.059Z,100798.45
2018-09-09T10:15:26.715Z,100791.44
2018-09-09T10:17:55.427Z,100791.42
2018-09-09T10:20:23.859Z,100789.50
2018-09-09T10:22:52.350Z,100783.88
2018-09-09T10:25:21.223Z,100779.41
2018-09-09T10:27:49.657Z,100782.73
2018-09-09T10:30:18.096Z,100785.66
2018-09-09T10:32:46.691Z,100784.95
2018-09-09T10:35:15.292Z,100784.84
2018-09-09T10:37:44.137Z,100785.53
2018-09-09T10:40:13.135Z,100784.92
2018-09-09T10:42:41.603Z,100782.37
2018-09-09T10:45:10.036Z,100778.63
2018-09-09T10:47:38.603Z,100779.53
2018-09-09T10:50:07.678Z,100775.86
2018-09-09T10:52:36.255Z,100783.69
2018-09-09T10:55:05.046Z,100784.14
2018-09-09T10:57:33.561Z,100782.13
2018-09-09T11:00:02.120Z,100783.37
2018-09-09T11:02:30.875Z,100779.62
2018-09-09T11:04:59.435Z,100781.75
2018-09-09T11:07:28.055Z,100785.30
2018-09-09T11:09:56.727Z,100782.26
2018-09-09T11:12:30.071Z,100783.43
2018-09-09T11:15:00.004Z,100779.16
2018-09-09T11:17:29.313Z,100781.58
2018-09-09T11:19:58.191Z,100769.75
2018-09-09T11:22:27.696Z,100769.73
2018-09-09T11:24:56.192Z,100776.17
2018-09-09T11:27:25.217Z,100770.25
2018-09-09T11:29:53.896Z,100767.84
2018-09-09T11:32:22.403Z,100772.57
2018-09-09T11:34:51.426Z,100771.61
2018-09-09T11:37:19.897Z,100763.45
2018-09-09T11:39:52.883Z,100764.17
2018-09-09T11:42:21.734Z,100759.55
2018-09-09T11:44:50.215Z,100761.00
2018-09-09T11:47:18.778Z,100759.11
2018-09-09T11:49:47.330Z,100752.08
2018-09-09T11:52:15.900Z,100745.87
2018-09-09T11:54:44.438Z,100745.91
2018-09-09T11:57:13.210Z,100742.60
2018-09-09T11:59:41.757Z,100742.20
2018-09-09T12:02:10.308Z,100737.23
2018-09-09T12:04:38.758Z,100737.41
2018-09-09T12:07:07.331Z,100735.16
2018-09-09T12:09:36.051Z,100739.33
2018-09-09T12:12:04.896Z,100738.22
2018-09-09T12:14:33.306Z,100737.38
2018-09-09T12:17:07.787Z,100733.89
2018-09-09T12:19:36.199Z,100734.16
2018-09-09T12:22:04.869Z,100742.09
2018-09-09T12:24:33.901Z,100733.31
2018-09-09T12:27:02.403Z,100729.06
2018-09-09T12:29:31.512Z,100736.28
2018-09-09T12:32:00.424Z,100734.41
2018-09-09T12:34:30.160Z,100732.95
2018-09-09T12:36:58.593Z,100729.36
2018-09-09T12:39:27.696Z,100733.07
2018-09-09T12:41:57.148Z,100725.27
2018-09-09T12:44:31.033Z,100730.05
2018-09-09T12:47:04.892Z,100724.89
2018-09-09T12:49:33.598Z,100723.25
2018-09-09T12:52:02.391Z,100724.77
2018-09-09T12:54:31.071Z,100722.19
2018-09-09T12:56:59.822Z,100721.23
2018-09-09T12:59:28.276Z,100719.79
2018-09-09T13:01:56.871Z,100713.45
2018-09-09T13:04:25.490Z,100714.30
2018-09-09T13:06:53.919Z,100720.27
2018-09-09T13:09:22.555Z,100715.78
2018-09-09T13:11:51.232Z,100715.34
2018-09-09T13:14:19.706Z,100716.31
2018-09-09T13:16:48.211Z,100713.92
2018-09-09T13:19:16.696Z,100721.16
2018-09-09T13:21:45.126Z,100715.45
2018-09-09T13:24:13.566Z,100718.44
2018-09-09T13:26:42.344Z,100716.95
2018-09-09T13:29:10.978Z,100711.57
2018-09-09T13:31:39.900Z,100700.05
2018-09-09T13:34:08.648Z,100697.45
2018-09-09T13:36:37.083Z,100697.95
2018-09-09T13:39:07.435Z,100708.37
2018-09-09T13:41:35.935Z,100703.06
2018-09-09T13:44:04.647Z,100701.70
2018-09-09T13:46:33.120Z,100697.63
2018-09-09T13:49:01.867Z,100691.71
2018-09-09T13:51:30.285Z,100690.42
2018-09-09T13:53:58.695Z,100686.94
2018-09-09T13:56:27.367Z,100695.45
2018-09-09T13:58:55.934Z,100691.19
2018-09-09T14:01:24.388Z,100692.44
2018-09-09T14:03:53.119Z,100690.56
2018-09-09T14:06:21.870Z,100692.20
2018-09-09T14:08:50.267Z,100688.23
2018-09-09T14:11:19.052Z,100689.30
2018-09-09T14:13:47.587Z,100692.07
2018-09-09T14:16:16.062Z,100688.52
2018-09-09T14:18:44.725Z,100684.77
2018-09-09T14:21:13.259Z,100678.00
2018-09-09T14:23:41.731Z,100684.94
2018-09-09T14:26:10.306Z,100674.27
2018-09-09T14:28:38.934Z,100667.95
2018-09-09T14:31:07.475Z,100670.66
2018-09-09T14:33:36.049Z,100667.32
2018-09-09T14:36:05.780Z,100673.50
2018-09-09T14:38:34.160Z,100676.80
2018-09-09T14:41:02.740Z,100673.82
2018-09-09T14:43:31.175Z,100667.47
2018-09-09T14:46:00.982Z,100667.25
2018-09-09T14:48:29.379Z,100669.34
2018-09-09T14:50:57.808Z,100669.10
2018-09-09T14:53:26.363Z,100669.12
2018-09-09T14:55:54.943Z,100658.88
2018-09-09T14:58:24.787Z,100665.28
2018-09-09T15:00:53.318Z,100660.36
2018-09-09T15:03:22.699Z,100662.45
2018-09-09T15:05:51.190Z,100661.50
2018-09-09T15:08:19.780Z,100659.23
2018-09-09T15:10:48.595Z,100658.88
2018-09-09T15:13:17.767Z,100656.49
2018-09-09T15:15:46.271Z,100650.92
2018-09-09T15:18:14.819Z,100651.05
2018-09-09T15:20:43.398Z,100649.45
2018-09-09T15:23:11.847Z,100646.20
2018-09-09T15:25:40.351Z,100649.45
2018-09-09T15:28:08.866Z,100646.41
2018-09-09T15:30:37.355Z,100641.01
2018-09-09T15:33:05.997Z,100639.38
2018-09-09T15:35:34.524Z,100639.92
2018-09-09T15:38:03.036Z,100641.51
2018-09-09T15:40:31.532Z,100640.95
2018-09-09T15:43:00.003Z,100636.16
2018-09-09T15:45:28.519Z,100636.29
2018-09-09T15:47:57.075Z,100627.44
2018-09-09T15:50:25.495Z,100628.58
2018-09-09T15:52:54.042Z,100625.85
2018-09-09T15:55:22.612Z,100632.64
2018-09-09T15:57:51.132Z,100628.26
2018-09-09T16:00:19.629Z,100625.53
2018-09-09T16:02:48.246Z,100623.53
2018-09-09T16:05:16.659Z,100622.54
2018-09-09T16:07:45.139Z,100624.53
2018-09-09T16:10:13.600Z,100631.56
2018-09-09T16:12:42.301Z,100618.69
2018-09-09T16:15:10.701Z,100625.27
2018-09-09T16:17:39.291Z,100625.48
2018-09-09T16:20:08.487Z,100625.03
2018-09-09T16:22:36.927Z,100626.48
2018-09-09T16:25:05.465Z,100624.48
2018-09-09T16:27:34.052Z,100629.58
2018-09-09T16:30:02.474Z,100626.16
2018-09-09T16:32:31.170Z,100623.91
2018-09-09T16:34:59.600Z,100627.84
2018-09-09T16:37:28.087Z,100624.98
2018-09-09T16:39:56.633Z,100625.99
2018-09-09T16:42:25.095Z,100620.16
2018-09-09T16:44:53.624Z,100621.02
2018-09-09T16:47:22.191Z,100626.09
2018-09-09T16:49:50.718Z,100626.95
2018-09-09T16:52:19.197Z,100625.03
2018-09-09T16:54:47.946Z,100629.46
2018-09-09T16:57:16.363Z,100635.41
2018-09-09T16:59:44.879Z,100635.44
2018-09-09T17:02:13.683Z,100630.37
2018-09-09T17:04:42.160Z,100631.11
2018-09-09T17:07:10.659Z,100640.02
2018-09-09T17:09:39.335Z,100642.08
2018-09-09T17:12:07.864Z,100634.50
2018-09-09T17:14:36.270Z,100642.71
2018-09-09T17:17:04.995Z,100639.91
2018-09-09T17:19:33.447Z,100642.20
2018-09-09T17:22:01.941Z,100647.75
2018-09-09T17:24:30.594Z,100648.94
2018-09-09T17:26:59.156Z,100652.08
2018-09-09T17:29:28.280Z,100657.47
2018-09-09T17:31:57.043Z,100657.08
2018-09-09T17:34:25.507Z,100655.70
2018-09-09T17:36:54.015Z,100651.40
2018-09-09T17:39:22.719Z,100658.31
2018-09-09T17:41:51.318Z,100657.50
2018-09-09T17:44:19.831Z,100656.95
2018-09-09T17:46:48.348Z,100663.53
2018-09-09T17:49:16.809Z,100662.37
2018-09-09T17:51:45.304Z,100665.56
2018-09-09T17:54:14.085Z,100668.94
2018-09-09T17:56:42.943Z,100667.88
2018-09-09T17:59:11.485Z,100674.23
2018-09-09T18:01:40.247Z,100672.36
2018-09-09T18:04:08.730Z,100675.06
2018-09-09T18:06:37.295Z,100675.45
2018-09-09T18:09:07.983Z,100672.38
2018-09-09T18:11:36.835Z,100676.45
2018-09-09T18:14:05.566Z,100683.72
2018-09-09T18:16:34.392Z,100687.53
2018-09-09T18:19:03.038Z,100684.14
2018-09-09T18:21:31.551Z,100680.63
2018-09-09T18:24:01.009Z,100686.20
2018-09-09T18:26:29.516Z,100690.63
2018-09-09T18:28:58.019Z,100688.52
2018-09-09T18:31:27.050Z,100688.15
2018-09-09T18:33:55.572Z,100689.95
2018-09-09T18:36:24.036Z,100690.80
2018-09-09T18:38:52.632Z,100687.23
2018-09-09T18:41:21.152Z,100693.29
2018-09-09T18:43:49.787Z,100697.03
2018-09-09T18:46:18.366Z,100693.47
2018-09-09T18:48:47.464Z,100690.93
2018-09-09T18:51:16.846Z,100695.46
2018-09-09T18:53:49.731Z,100694.20
2018-09-09T18:56:18.400Z,100697.21
2018-09-09T18:58:46.940Z,100700.42
2018-09-09T19:01:15.622Z,100698.46
2018-09-09T19:03:44.484Z,100702.89
2018-09-09T19:06:13.046Z,100705.45
2018-09-09T19:08:42.109Z,100708.47
2018-09-09T19:11:10.632Z,100711.73
2018-09-09T19:13:39.210Z,100713.15
2018-09-09T19:16:08.362Z,100708.56
2018-09-09T19:18:37.823Z,100710.84
2018-09-09T19:21:06.334Z,100710.55
2018-09-09T19:23:35.294Z,100717.33
2018-09-09T19:26:04.160Z,100715.30
2018-09-09T19:28:32.991Z,100719.50
2018-09-09T19:31:02.061Z,100721.58
2018-09-09T19:33:30.856Z,100727.98
2018-09-09T19:35:59.755Z,100731.80
2018-09-09T19:38:28.358Z,100737.96
2018-09-09T19:40:57.010Z,100737.00
2018-09-09T19:43:25.558Z,100738.13
2018-09-09T19:45:54.792Z,100738.70
2018-09-09T19:48:23.507Z,100741.75
2018-09-09T19:50:52.119Z,100735.89
2018-09-09T19:53:20.908Z,100736.47
2018-09-09T19:55:49.371Z,100734.77
2018-09-09T19:58:17.904Z,100739.66
2018-09-09T20:00:46.520Z,100738.59
2018-09-09T20:03:15.049Z,100735.20
2018-09-09T20:05:43.533Z,100728.80
2018-09-09T20:08:12.183Z,100729.61
2018-09-09T20:10:40.720Z,100730.55
2018-09-09T20:13:10.107Z,100734.69
2018-09-09T20:15:38.950Z,100732.18
2018-09-09T20:18:07.875Z,100733.02
2018-09-09T20:20:36.427Z,100740.42
2018-09-09T20:23:05.090Z,100741.33
2018-09-09T20:25:33.652Z,100744.53
2018-09-09T20:28:02.124Z,100751.32
2018-09-09T20:30:30.657Z,100753.73
2018-09-09T20:32:59.248Z,100756.28
2018-09-09T20:35:27.762Z,100759.65
2018-09-09T20:37:56.302Z,100758.89
2018-09-09T20:40:25.767Z,100759.23
2018-09-09T20:42:54.260Z,100768.50
2018-09-09T20:45:22.976Z,100779.44
2018-09-09T20:47:51.583Z,100776.30
2018-09-09T20:50:20.047Z,100774.16
2018-09-09T20:52:48.578Z,100768.87
2018-09-09T20:55:17.099Z,100767.60
2018-09-09T20:57:45.514Z,100771.78
2018-09-09T21:00:14.155Z,100773.66
2018-09-09T21:02:42.622Z,100772.55
2018-09-09T21:05:11.190Z,100781.16
2018-09-09T21:07:39.923Z,100780.78
2018-09-09T21:10:08.454Z,100773.75
2018-09-09T21:12:36.891Z,100780.92
2018-09-09T21:15:07.211Z,100782.84
2018-09-09T21:17:36.226Z,100780.16
2018-09-09T21:20:05.032Z,100773.59
2018-09-09T21:22:33.771Z,100767.78
2018-09-09T21:25:02.627Z,100767.98
2018-09-09T21:27:31.071Z,100769.72
2018-09-09T21:29:59.689Z,100769.29
2018-09-09T21:32:28.115Z,100774.19
2018-09-09T21:34:56.594Z,100781.02
2018-09-09T21:37:25.042Z,100786.31
2018-09-09T21:39:53.582Z,100790.59
2018-09-09T21:42:22.022Z,100793.02
2018-09-09T21:44:50.591Z,100793.54
2018-09-09T21:47:18.999Z,100796.05
2018-09-09T21:49:47.474Z,100799.69
2018-09-09T21:52:16.207Z,100792.08
2018-09-09T21:54:44.747Z,100796.50
2018-09-09T21:57:13.251Z,100798.86
2018-09-09T21:59:41.886Z,100788.19
2018-09-09T22:02:10.318Z,100784.99
2018-09-09T22:04:39.250Z,100783.04
2018-09-09T22:07:11.970Z,100778.56
2018-09-09T22:09:41.867Z,100768.55
2018-09-09T22:12:11.198Z,100769.01
2018-09-09T22:14:40.110Z,100769.62
2018-09-09T22:17:09.338Z,100769.03
2018-09-09T22:19:37.775Z,100771.22
2018-09-09T22:22:06.246Z,100770.50
2018-09-09T22:24:34.740Z,100762.72
2018-09-09T22:27:03.429Z,100766.31
2018-09-09T22:29:31.851Z,100767.09
2018-09-09T22:32:00.274Z,100769.87
2018-09-09T22:34:28.810Z,100771.20
2018-09-09T22:36:57.322Z,100768.72
2018-09-09T22:39:25.715Z,100774.52
2018-09-09T22:41:54.385Z,100776.95
2018-09-09T22:44:22.897Z,100775.25
2018-09-09T22:46:51.470Z,100780.49
2018-09-09T22:49:20.170Z,100786.13
2018-09-09T22:51:48.682Z,100777.05
2018-09-09T22:54:17.175Z,100778.58
2018-09-09T22:56:45.726Z,100781.59
2018-09-09T22:59:14.250Z,100797.73
2018-09-09T23:01:42.766Z,100800.06
2018-09-09T23:04:11.434Z,100810.03
2018-09-09T23:06:39.863Z,100802.85
2018-09-09T23:09:10.438Z,100807.66
2018-09-09T23:11:38.903Z,100804.16
2018-09-09T23:14:07.634Z,100799.84
2018-09-09T23:16:36.371Z,100792.98
2018-09-09T23:19:04.928Z,100793.62
2018-09-09T23:21:33.378Z,100791.06
2018-09-09T23:24:02.059Z,100785.14
2018-09-09T23:26:30.458Z,100787.39
2018-09-09T23:28:58.964Z,100786.98
2018-09-09T23:31:27.562Z,100788.46
2018-09-09T23:33:56.176Z,100787.64
2018-09-09T23:36:24.750Z,100789.80
2018-09-09T23:38:53.514Z,100786.52
2018-09-09T23:41:21.966Z,100784.67
2018-09-09T23:43:50.378Z,100785.14
2018-09-09T23:46:19.028Z,100784.61
2018-09-09T23:48:47.539Z,100786.72
2018-09-09T23:51:16.005Z,100790.86
2018-09-09T23:53:44.714Z,100782.11
2018-09-09T23:56:13.106Z,100787.48
2018-09-09T23:58:41.595Z,100786.61
